sensor_id;sensor_type;location;lat;lon;timestamp;P1;durP1;ratioP1;P2;durP2;ratioP2
28904;SDS011;60848;53.884;11.446;2022-09-09T00:00:26;33.45;;;22.23;;
28904;SDS011;60848;53.884;11.446;2022-09-09T00:03:02;34.22;;;21.65;;
28904;SDS011;60848;53.884;11.446;2022-09-09T00:05:38;35.90;;;22.38;;
28904;SDS011;60848;53.884;11.446;2022-09-09T00:08:17;36.72;;;23.70;;
28904;SDS011;60848;53.884;11.446;2022-09-09T00:10:50;37.83;;;23.23;;
28904;SDS011;60848;53.884;11.446;2022-09-09T00:13:27;35.88;;;22.88;;
28904;SDS011;60848;53.884;11.446;2022-09-09T00:16:00;38.08;;;23.80;;
28904;SDS011;60848;53.884;11.446;2022-09-09T00:18:46;35.25;;;22.65;;
28904;SDS011;60848;53.884;11.446;2022-09-09T00:21:20;38.55;;;23.70;;
28904;SDS011;60848;53.884;11.446;2022-09-09T00:23:58;35.53;;;23.55;;
28904;SDS011;60848;53.884;11.446;2022-09-09T00:26:34;37.15;;;23.92;;
28904;SDS011;60848;53.884;11.446;2022-09-09T00:29:10;38.63;;;24.52;;
28904;SDS011;60848;53.884;11.446;2022-09-09T00:31:46;37.70;;;24.05;;
28904;SDS011;60848;53.884;11.446;2022-09-09T00:34:17;37.08;;;24.65;;
28904;SDS011;60848;53.884;11.446;2022-09-09T00:36:48;36.72;;;23.75;;
28904;SDS011;60848;53.884;11.446;2022-09-09T00:39:23;38.22;;;24.85;;
28904;SDS011;60848;53.884;11.446;2022-09-09T00:42:03;38.20;;;25.98;;
28904;SDS011;60848;53.884;11.446;2022-09-09T00:44:45;38.83;;;25.08;;
28904;SDS011;60848;53.884;11.446;2022-09-09T00:47:33;41.97;;;26.67;;
28904;SDS011;60848;53.884;11.446;2022-09-09T00:50:17;41.17;;;26.58;;
28904;SDS011;60848;53.884;11.446;2022-09-09T00:53:02;43.80;;;27.58;;
28904;SDS011;60848;53.884;11.446;2022-09-09T00:55:43;45.58;;;27.17;;
28904;SDS011;60848;53.884;11.446;2022-09-09T00:58:17;44.83;;;27.20;;
28904;SDS011;60848;53.884;11.446;2022-09-09T01:00:49;48.20;;;28.83;;
28904;SDS011;60848;53.884;11.446;2022-09-09T01:03:21;48.42;;;28.15;;
28904;SDS011;60848;53.884;11.446;2022-09-09T01:06:01;43.78;;;27.05;;
28904;SDS011;60848;53.884;11.446;2022-09-09T01:08:42;49.28;;;29.00;;
28904;SDS011;60848;53.884;11.446;2022-09-09T01:11:37;46.72;;;28.60;;
28904;SDS011;60848;53.884;11.446;2022-09-09T01:14:20;52.50;;;30.77;;
28904;SDS011;60848;53.884;11.446;2022-09-09T01:17:05;54.70;;;31.33;;
28904;SDS011;60848;53.884;11.446;2022-09-09T01:19:50;51.25;;;30.20;;
28904;SDS011;60848;53.884;11.446;2022-09-09T01:22:29;58.30;;;31.73;;
28904;SDS011;60848;53.884;11.446;2022-09-09T01:25:15;53.95;;;30.70;;
28904;SDS011;60848;53.884;11.446;2022-09-09T01:27:58;53.80;;;30.70;;
28904;SDS011;60848;53.884;11.446;2022-09-09T01:30:30;54.85;;;30.10;;
28904;SDS011;60848;53.884;11.446;2022-09-09T01:33:00;52.25;;;31.15;;
28904;SDS011;60848;53.884;11.446;2022-09-09T01:35:32;54.13;;;32.05;;
28904;SDS011;60848;53.884;11.446;2022-09-09T01:38:07;56.58;;;31.67;;
28904;SDS011;60848;53.884;11.446;2022-09-09T01:40:36;51.08;;;30.40;;
28904;SDS011;60848;53.884;11.446;2022-09-09T01:43:06;53.30;;;30.25;;
28904;SDS011;60848;53.884;11.446;2022-09-09T01:45:35;50.80;;;29.45;;
28904;SDS011;60848;53.884;11.446;2022-09-09T01:48:07;54.55;;;30.23;;
28904;SDS011;60848;53.884;11.446;2022-09-09T01:50:42;54.00;;;29.73;;
28904;SDS011;60848;53.884;11.446;2022-09-09T01:53:11;49.45;;;27.42;;
28904;SDS011;60848;53.884;11.446;2022-09-09T01:55:44;46.72;;;28.63;;
28904;SDS011;60848;53.884;11.446;2022-09-09T01:58:31;48.55;;;27.70;;
28904;SDS011;60848;53.884;11.446;2022-09-09T02:01:06;48.45;;;28.40;;
28904;SDS011;60848;53.884;11.446;2022-09-09T02:03:47;50.30;;;27.70;;
28904;SDS011;60848;53.884;11.446;2022-09-09T02:06:25;53.72;;;29.27;;
28904;SDS011;60848;53.884;11.446;2022-09-09T02:09:06;48.67;;;27.58;;
28904;SDS011;60848;53.884;11.446;2022-09-09T02:11:41;48.45;;;27.35;;
28904;SDS011;60848;53.884;11.446;2022-09-09T02:14:22;49.05;;;28.08;;
28904;SDS011;60848;53.884;11.446;2022-09-09T02:16:56;52.80;;;29.67;;
28904;SDS011;60848;53.884;11.446;2022-09-09T02:19:48;51.33;;;28.42;;
28904;SDS011;60848;53.884;11.446;2022-09-09T02:22:28;48.35;;;29.20;;
28904;SDS011;60848;53.884;11.446;2022-09-09T02:25:01;46.45;;;27.98;;
28904;SDS011;60848;53.884;11.446;2022-09-09T02:30:03;49.67;;;29.15;;
28904;SDS011;60848;53.884;11.446;2022-09-09T02:32:40;46.15;;;27.92;;
28904;SDS011;60848;53.884;11.446;2022-09-09T02:35:14;49.88;;;29.50;;
28904;SDS011;60848;53.884;11.446;2022-09-09T02:37:47;50.88;;;29.30;;
28904;SDS011;60848;53.884;11.446;2022-09-09T02:40:18;50.58;;;28.45;;
28904;SDS011;60848;53.884;11.446;2022-09-09T02:42:54;49.85;;;28.35;;
28904;SDS011;60848;53.884;11.446;2022-09-09T02:45:26;50.65;;;28.75;;
28904;SDS011;60848;53.884;11.446;2022-09-09T02:48:03;52.97;;;30.33;;
28904;SDS011;60848;53.884;11.446;2022-09-09T02:50:45;52.83;;;29.55;;
28904;SDS011;60848;53.884;11.446;2022-09-09T02:55:57;49.70;;;29.48;;
28904;SDS011;60848;53.884;11.446;2022-09-09T02:58:32;53.72;;;29.70;;
28904;SDS011;60848;53.884;11.446;2022-09-09T03:01:06;52.78;;;31.10;;
28904;SDS011;60848;53.884;11.446;2022-09-09T03:03:35;57.97;;;32.00;;
28904;SDS011;60848;53.884;11.446;2022-09-09T03:06:08;60.00;;;32.20;;
28904;SDS011;60848;53.884;11.446;2022-09-09T03:08:41;59.55;;;32.22;;
28904;SDS011;60848;53.884;11.446;2022-09-09T03:11:20;57.95;;;31.58;;
28904;SDS011;60848;53.884;11.446;2022-09-09T03:13:49;61.75;;;32.15;;
28904;SDS011;60848;53.884;11.446;2022-09-09T03:16:21;56.97;;;29.65;;
28904;SDS011;60848;53.884;11.446;2022-09-09T03:18:52;57.95;;;29.95;;
28904;SDS011;60848;53.884;11.446;2022-09-09T03:21:21;54.65;;;29.73;;
28904;SDS011;60848;53.884;11.446;2022-09-09T03:23:49;58.25;;;30.38;;
28904;SDS011;60848;53.884;11.446;2022-09-09T03:26:18;68.03;;;31.95;;
28904;SDS011;60848;53.884;11.446;2022-09-09T03:28:46;57.90;;;30.50;;
28904;SDS011;60848;53.884;11.446;2022-09-09T03:31:18;62.00;;;32.00;;
28904;SDS011;60848;53.884;11.446;2022-09-09T03:33:47;61.65;;;30.27;;
28904;SDS011;60848;53.884;11.446;2022-09-09T03:36:17;63.45;;;32.13;;
28904;SDS011;60848;53.884;11.446;2022-09-09T03:38:48;63.17;;;31.02;;
28904;SDS011;60848;53.884;11.446;2022-09-09T03:41:17;63.75;;;32.55;;
28904;SDS011;60848;53.884;11.446;2022-09-09T03:43:46;62.38;;;30.33;;
28904;SDS011;60848;53.884;11.446;2022-09-09T03:46:14;66.55;;;30.90;;
28904;SDS011;60848;53.884;11.446;2022-09-09T03:48:42;63.72;;;29.98;;
28904;SDS011;60848;53.884;11.446;2022-09-09T03:51:12;62.33;;;29.30;;
28904;SDS011;60848;53.884;11.446;2022-09-09T03:53:41;62.70;;;30.37;;
28904;SDS011;60848;53.884;11.446;2022-09-09T03:56:11;68.60;;;29.95;;
28904;SDS011;60848;53.884;11.446;2022-09-09T03:58:39;66.18;;;30.52;;
28904;SDS011;60848;53.884;11.446;2022-09-09T04:01:11;65.47;;;28.95;;
28904;SDS011;60848;53.884;11.446;2022-09-09T04:03:42;69.72;;;29.95;;
28904;SDS011;60848;53.884;11.446;2022-09-09T04:06:12;65.97;;;30.13;;
28904;SDS011;60848;53.884;11.446;2022-09-09T04:08:44;74.47;;;31.58;;
28904;SDS011;60848;53.884;11.446;2022-09-09T04:11:15;70.82;;;30.42;;
28904;SDS011;60848;53.884;11.446;2022-09-09T04:13:48;68.25;;;29.38;;
28904;SDS011;60848;53.884;11.446;2022-09-09T04:16:17;64.55;;;28.10;;
28904;SDS011;60848;53.884;11.446;2022-09-09T04:18:46;61.63;;;27.65;;
28904;SDS011;60848;53.884;11.446;2022-09-09T04:21:17;60.20;;;27.88;;
28904;SDS011;60848;53.884;11.446;2022-09-09T04:26:16;59.40;;;25.60;;
28904;SDS011;60848;53.884;11.446;2022-09-09T04:28:44;63.38;;;26.90;;
28904;SDS011;60848;53.884;11.446;2022-09-09T04:31:18;63.08;;;27.52;;
28904;SDS011;60848;53.884;11.446;2022-09-09T04:33:52;64.85;;;26.80;;
28904;SDS011;60848;53.884;11.446;2022-09-09T04:36:22;66.53;;;27.80;;
28904;SDS011;60848;53.884;11.446;2022-09-09T04:38:55;59.65;;;28.00;;
28904;SDS011;60848;53.884;11.446;2022-09-09T04:41:24;59.70;;;27.02;;
28904;SDS011;60848;53.884;11.446;2022-09-09T04:43:55;66.53;;;27.92;;
28904;SDS011;60848;53.884;11.446;2022-09-09T04:46:25;67.75;;;33.95;;
28904;SDS011;60848;53.884;11.446;2022-09-09T04:48:56;67.90;;;33.97;;
28904;SDS011;60848;53.884;11.446;2022-09-09T04:51:29;64.95;;;33.63;;
28904;SDS011;60848;53.884;11.446;2022-09-09T04:53:58;68.07;;;33.43;;
28904;SDS011;60848;53.884;11.446;2022-09-09T04:56:29;68.80;;;33.15;;
28904;SDS011;60848;53.884;11.446;2022-09-09T04:58:59;69.75;;;33.63;;
28904;SDS011;60848;53.884;11.446;2022-09-09T05:04:10;62.70;;;27.85;;
28904;SDS011;60848;53.884;11.446;2022-09-09T05:06:40;58.35;;;27.30;;
28904;SDS011;60848;53.884;11.446;2022-09-09T05:09:10;57.63;;;27.17;;
28904;SDS011;60848;53.884;11.446;2022-09-09T05:11:39;57.35;;;24.85;;
28904;SDS011;60848;53.884;11.446;2022-09-09T05:14:15;58.70;;;26.80;;
28904;SDS011;60848;53.884;11.446;2022-09-09T05:16:44;57.90;;;27.90;;
28904;SDS011;60848;53.884;11.446;2022-09-09T05:19:14;62.75;;;28.20;;
28904;SDS011;60848;53.884;11.446;2022-09-09T05:21:50;63.05;;;28.70;;
28904;SDS011;60848;53.884;11.446;2022-09-09T05:24:24;60.67;;;29.52;;
28904;SDS011;60848;53.884;11.446;2022-09-09T05:26:56;58.60;;;28.23;;
28904;SDS011;60848;53.884;11.446;2022-09-09T05:31:58;58.63;;;29.00;;
28904;SDS011;60848;53.884;11.446;2022-09-09T05:34:30;59.05;;;29.00;;
28904;SDS011;60848;53.884;11.446;2022-09-09T05:37:00;64.18;;;30.85;;
28904;SDS011;60848;53.884;11.446;2022-09-09T05:39:30;64.35;;;32.53;;
28904;SDS011;60848;53.884;11.446;2022-09-09T05:41:59;62.55;;;31.10;;
28904;SDS011;60848;53.884;11.446;2022-09-09T05:44:29;60.78;;;31.08;;
28904;SDS011;60848;53.884;11.446;2022-09-09T05:46:59;68.55;;;34.30;;
28904;SDS011;60848;53.884;11.446;2022-09-09T05:49:30;61.63;;;32.17;;
28904;SDS011;60848;53.884;11.446;2022-09-09T05:51:58;57.90;;;30.00;;
28904;SDS011;60848;53.884;11.446;2022-09-09T05:54:30;57.67;;;30.50;;
28904;SDS011;60848;53.884;11.446;2022-09-09T05:56:59;57.17;;;30.67;;
28904;SDS011;60848;53.884;11.446;2022-09-09T05:59:27;58.28;;;30.25;;
28904;SDS011;60848;53.884;11.446;2022-09-09T06:01:56;60.03;;;30.13;;
28904;SDS011;60848;53.884;11.446;2022-09-09T06:04:31;61.97;;;31.15;;
28904;SDS011;60848;53.884;11.446;2022-09-09T06:07:02;58.22;;;30.48;;
28904;SDS011;60848;53.884;11.446;2022-09-09T06:09:32;57.63;;;29.60;;
28904;SDS011;60848;53.884;11.446;2022-09-09T06:12:01;52.85;;;28.95;;
28904;SDS011;60848;53.884;11.446;2022-09-09T06:14:34;55.83;;;29.90;;
28904;SDS011;60848;53.884;11.446;2022-09-09T06:17:03;49.35;;;27.80;;
28904;SDS011;60848;53.884;11.446;2022-09-09T06:19:32;44.88;;;26.25;;
28904;SDS011;60848;53.884;11.446;2022-09-09T06:22:02;40.90;;;25.73;;
28904;SDS011;60848;53.884;11.446;2022-09-09T06:24:35;38.17;;;25.67;;
28904;SDS011;60848;53.884;11.446;2022-09-09T06:27:03;40.45;;;26.48;;
28904;SDS011;60848;53.884;11.446;2022-09-09T06:32:03;42.92;;;26.40;;
28904;SDS011;60848;53.884;11.446;2022-09-09T06:42:12;34.55;;;23.33;;
28904;SDS011;60848;53.884;11.446;2022-09-09T06:44:53;35.45;;;23.13;;
28904;SDS011;60848;53.884;11.446;2022-09-09T06:47:42;32.80;;;22.80;;
28904;SDS011;60848;53.884;11.446;2022-09-09T06:50:10;32.28;;;22.02;;
28904;SDS011;60848;53.884;11.446;2022-09-09T06:55:09;32.95;;;22.88;;
28904;SDS011;60848;53.884;11.446;2022-09-09T06:57:40;32.60;;;23.17;;
28904;SDS011;60848;53.884;11.446;2022-09-09T07:00:13;34.13;;;22.13;;
28904;SDS011;60848;53.884;11.446;2022-09-09T07:02:44;32.57;;;22.57;;
28904;SDS011;60848;53.884;11.446;2022-09-09T07:05:13;34.97;;;23.45;;
28904;SDS011;60848;53.884;11.446;2022-09-09T07:07:46;35.60;;;23.45;;
28904;SDS011;60848;53.884;11.446;2022-09-09T07:10:17;35.28;;;23.23;;
28904;SDS011;60848;53.884;11.446;2022-09-09T07:12:49;34.80;;;24.05;;
28904;SDS011;60848;53.884;11.446;2022-09-09T07:15:20;33.50;;;23.23;;
28904;SDS011;60848;53.884;11.446;2022-09-09T07:17:49;32.88;;;22.73;;
28904;SDS011;60848;53.884;11.446;2022-09-09T07:20:19;30.63;;;22.30;;
28904;SDS011;60848;53.884;11.446;2022-09-09T07:22:50;29.60;;;20.48;;
28904;SDS011;60848;53.884;11.446;2022-09-09T07:25:23;33.10;;;21.10;;
28904;SDS011;60848;53.884;11.446;2022-09-09T07:27:53;28.27;;;20.20;;
28904;SDS011;60848;53.884;11.446;2022-09-09T07:30:21;28.65;;;20.42;;
28904;SDS011;60848;53.884;11.446;2022-09-09T07:32:54;30.42;;;20.77;;
28904;SDS011;60848;53.884;11.446;2022-09-09T07:35:23;28.67;;;20.83;;
28904;SDS011;60848;53.884;11.446;2022-09-09T07:37:57;30.00;;;22.15;;
28904;SDS011;60848;53.884;11.446;2022-09-09T07:40:25;29.35;;;21.38;;
28904;SDS011;60848;53.884;11.446;2022-09-09T07:42:54;31.15;;;21.55;;
28904;SDS011;60848;53.884;11.446;2022-09-09T07:45:22;27.95;;;19.60;;
28904;SDS011;60848;53.884;11.446;2022-09-09T08:23:13;16.75;;;14.93;;
28904;SDS011;60848;53.884;11.446;2022-09-09T08:25:44;18.63;;;14.07;;
28904;SDS011;60848;53.884;11.446;2022-09-09T08:28:12;14.98;;;12.75;;
28904;SDS011;60848;53.884;11.446;2022-09-09T08:30:41;13.95;;;12.52;;
28904;SDS011;60848;53.884;11.446;2022-09-09T08:33:11;15.63;;;13.95;;
28904;SDS011;60848;53.884;11.446;2022-09-09T08:35:49;15.30;;;13.68;;
28904;SDS011;60848;53.884;11.446;2022-09-09T08:38:18;16.73;;;13.93;;
28904;SDS011;60848;53.884;11.446;2022-09-09T08:40:48;14.52;;;12.85;;
28904;SDS011;60848;53.884;11.446;2022-09-09T08:43:20;14.63;;;12.20;;
28904;SDS011;60848;53.884;11.446;2022-09-09T08:45:53;13.38;;;11.95;;
28904;SDS011;60848;53.884;11.446;2022-09-09T08:48:33;13.75;;;12.25;;
28904;SDS011;60848;53.884;11.446;2022-09-09T08:51:11;13.93;;;12.45;;
28904;SDS011;60848;53.884;11.446;2022-09-09T08:53:43;15.02;;;13.48;;
28904;SDS011;60848;53.884;11.446;2022-09-09T08:56:18;14.05;;;12.13;;
28904;SDS011;60848;53.884;11.446;2022-09-09T09:04:26;12.75;;;11.48;;
28904;SDS011;60848;53.884;11.446;2022-09-09T09:09:38;14.35;;;11.95;;
28904;SDS011;60848;53.884;11.446;2022-09-09T09:12:17;13.63;;;11.68;;
28904;SDS011;60848;53.884;11.446;2022-09-09T09:14:48;13.18;;;11.60;;
28904;SDS011;60848;53.884;11.446;2022-09-09T09:48:36;11.20;;;10.05;;
28904;SDS011;60848;53.884;11.446;2022-09-09T09:51:08;11.98;;;9.57;;
28904;SDS011;60848;53.884;11.446;2022-09-09T09:53:41;10.90;;;8.85;;
28904;SDS011;60848;53.884;11.446;2022-09-09T10:11:41;8.60;;;6.95;;
28904;SDS011;60848;53.884;11.446;2022-09-09T10:14:20;8.85;;;6.97;;
28904;SDS011;60848;53.884;11.446;2022-09-09T10:16:54;9.70;;;6.05;;
28904;SDS011;60848;53.884;11.446;2022-09-09T10:19:33;8.52;;;6.22;;
28904;SDS011;60848;53.884;11.446;2022-09-09T10:22:05;7.90;;;6.05;;
28904;SDS011;60848;53.884;11.446;2022-09-09T10:24:54;9.43;;;7.47;;
28904;SDS011;60848;53.884;11.446;2022-09-09T10:27:42;9.40;;;6.68;;
28904;SDS011;60848;53.884;11.446;2022-09-09T10:30:26;9.02;;;7.70;;
28904;SDS011;60848;53.884;11.446;2022-09-09T10:33:04;8.80;;;6.45;;
28904;SDS011;60848;53.884;11.446;2022-09-09T10:35:38;8.23;;;5.85;;
28904;SDS011;60848;53.884;11.446;2022-09-09T10:38:13;9.00;;;6.55;;
28904;SDS011;60848;53.884;11.446;2022-09-09T10:40:47;9.60;;;6.60;;
28904;SDS011;60848;53.884;11.446;2022-09-09T10:46:32;9.43;;;6.50;;
28904;SDS011;60848;53.884;11.446;2022-09-09T10:49:10;8.70;;;7.22;;
28904;SDS011;60848;53.884;11.446;2022-09-09T10:51:50;8.90;;;6.40;;
28904;SDS011;60848;53.884;11.446;2022-09-09T10:54:30;7.45;;;5.90;;
28904;SDS011;60848;53.884;11.446;2022-09-09T10:57:08;8.90;;;6.30;;
28904;SDS011;60848;53.884;11.446;2022-09-09T10:59:42;8.30;;;6.33;;
28904;SDS011;60848;53.884;11.446;2022-09-09T11:02:19;8.27;;;5.90;;
28904;SDS011;60848;53.884;11.446;2022-09-09T11:04:55;7.50;;;5.55;;
28904;SDS011;60848;53.884;11.446;2022-09-09T11:07:29;6.68;;;5.38;;
28904;SDS011;60848;53.884;11.446;2022-09-09T11:10:04;7.10;;;5.15;;
28904;SDS011;60848;53.884;11.446;2022-09-09T11:12:42;7.10;;;4.90;;
28904;SDS011;60848;53.884;11.446;2022-09-09T11:15:14;6.80;;;4.00;;
28904;SDS011;60848;53.884;11.446;2022-09-09T11:17:50;8.07;;;3.88;;
28904;SDS011;60848;53.884;11.446;2022-09-09T11:20:23;4.93;;;3.60;;
28904;SDS011;60848;53.884;11.446;2022-09-09T11:22:53;6.30;;;3.45;;
28904;SDS011;60848;53.884;11.446;2022-09-09T11:25:28;7.82;;;4.00;;
28904;SDS011;60848;53.884;11.446;2022-09-09T11:28:09;5.35;;;3.65;;
28904;SDS011;60848;53.884;11.446;2022-09-09T11:30:54;7.00;;;3.97;;
28904;SDS011;60848;53.884;11.446;2022-09-09T11:33:41;6.70;;;3.30;;
28904;SDS011;60848;53.884;11.446;2022-09-09T11:36:27;5.50;;;2.90;;
28904;SDS011;60848;53.884;11.446;2022-09-09T11:39:28;6.65;;;3.20;;
28904;SDS011;60848;53.884;11.446;2022-09-09T11:42:15;5.13;;;3.40;;
28904;SDS011;60848;53.884;11.446;2022-09-09T11:44:46;6.87;;;3.40;;
28904;SDS011;60848;53.884;11.446;2022-09-09T11:47:21;5.88;;;3.80;;
28904;SDS011;60848;53.884;11.446;2022-09-09T11:50:08;8.25;;;5.22;;
28904;SDS011;60848;53.884;11.446;2022-09-09T11:52:39;5.93;;;4.13;;
28904;SDS011;60848;53.884;11.446;2022-09-09T11:55:24;6.28;;;3.28;;
28904;SDS011;60848;53.884;11.446;2022-09-09T11:57:57;4.00;;;2.30;;
28904;SDS011;60848;53.884;11.446;2022-09-09T12:00:33;5.80;;;1.85;;
28904;SDS011;60848;53.884;11.446;2022-09-09T12:03:04;3.70;;;1.80;;
28904;SDS011;60848;53.884;11.446;2022-09-09T12:05:37;2.75;;;1.40;;
28904;SDS011;60848;53.884;11.446;2022-09-09T12:08:08;3.83;;;1.60;;
28904;SDS011;60848;53.884;11.446;2022-09-09T12:10:39;5.38;;;1.80;;
28904;SDS011;60848;53.884;11.446;2022-09-09T12:13:16;2.22;;;1.10;;
28904;SDS011;60848;53.884;11.446;2022-09-09T12:15:49;3.83;;;1.50;;
28904;SDS011;60848;53.884;11.446;2022-09-09T12:18:21;3.17;;;1.30;;
28904;SDS011;60848;53.884;11.446;2022-09-09T12:20:54;3.28;;;1.00;;
28904;SDS011;60848;53.884;11.446;2022-09-09T12:23:35;3.58;;;1.17;;
28904;SDS011;60848;53.884;11.446;2022-09-09T12:26:28;2.65;;;1.15;;
28904;SDS011;60848;53.884;11.446;2022-09-09T12:29:04;3.25;;;1.15;;
28904;SDS011;60848;53.884;11.446;2022-09-09T12:31:40;3.05;;;1.20;;
28904;SDS011;60848;53.884;11.446;2022-09-09T12:34:14;3.65;;;1.25;;
28904;SDS011;60848;53.884;11.446;2022-09-09T12:36:51;2.58;;;1.08;;
28904;SDS011;60848;53.884;11.446;2022-09-09T12:39:26;3.10;;;1.40;;
28904;SDS011;60848;53.884;11.446;2022-09-09T12:41:58;3.22;;;1.20;;
28904;SDS011;60848;53.884;11.446;2022-09-09T12:44:29;2.95;;;1.02;;
28904;SDS011;60848;53.884;11.446;2022-09-09T12:46:59;2.13;;;1.10;;
28904;SDS011;60848;53.884;11.446;2022-09-09T12:49:30;3.08;;;1.10;;
28904;SDS011;60848;53.884;11.446;2022-09-09T12:52:03;2.17;;;1.00;;
28904;SDS011;60848;53.884;11.446;2022-09-09T12:54:34;4.60;;;1.30;;
28904;SDS011;60848;53.884;11.446;2022-09-09T12:57:04;2.55;;;1.08;;
28904;SDS011;60848;53.884;11.446;2022-09-09T12:59:36;3.35;;;1.10;;
28904;SDS011;60848;53.884;11.446;2022-09-09T13:02:11;2.80;;;1.00;;
28904;SDS011;60848;53.884;11.446;2022-09-09T13:04:47;3.08;;;1.10;;
28904;SDS011;60848;53.884;11.446;2022-09-09T13:07:18;3.70;;;1.20;;
28904;SDS011;60848;53.884;11.446;2022-09-09T13:09:48;3.42;;;1.35;;
28904;SDS011;60848;53.884;11.446;2022-09-09T13:12:18;4.03;;;1.30;;
28904;SDS011;60848;53.884;11.446;2022-09-09T13:14:49;2.53;;;1.20;;
28904;SDS011;60848;53.884;11.446;2022-09-09T13:17:21;4.25;;;1.20;;
28904;SDS011;60848;53.884;11.446;2022-09-09T13:19:51;3.30;;;1.10;;
28904;SDS011;60848;53.884;11.446;2022-09-09T13:22:29;3.13;;;1.20;;
28904;SDS011;60848;53.884;11.446;2022-09-09T13:25:00;3.05;;;1.38;;
28904;SDS011;60848;53.884;11.446;2022-09-09T13:27:31;3.50;;;1.20;;
28904;SDS011;60848;53.884;11.446;2022-09-09T13:30:01;3.20;;;1.30;;
28904;SDS011;60848;53.884;11.446;2022-09-09T13:32:30;3.50;;;1.50;;
28904;SDS011;60848;53.884;11.446;2022-09-09T13:34:59;2.77;;;1.00;;
28904;SDS011;60848;53.884;11.446;2022-09-09T13:37:31;3.90;;;1.20;;
28904;SDS011;60848;53.884;11.446;2022-09-09T13:40:03;4.10;;;1.40;;
28904;SDS011;60848;53.884;11.446;2022-09-09T13:42:34;4.22;;;1.20;;
28904;SDS011;60848;53.884;11.446;2022-09-09T13:45:15;2.97;;;1.35;;
28904;SDS011;60848;53.884;11.446;2022-09-09T13:47:46;3.83;;;1.20;;
28904;SDS011;60848;53.884;11.446;2022-09-09T13:50:19;4.53;;;1.30;;
28904;SDS011;60848;53.884;11.446;2022-09-09T13:52:51;3.97;;;1.10;;
28904;SDS011;60848;53.884;11.446;2022-09-09T13:55:20;2.78;;;1.20;;
28904;SDS011;60848;53.884;11.446;2022-09-09T13:57:51;3.53;;;1.37;;
28904;SDS011;60848;53.884;11.446;2022-09-09T14:00:20;3.78;;;1.17;;
28904;SDS011;60848;53.884;11.446;2022-09-09T14:02:50;3.08;;;1.20;;
28904;SDS011;60848;53.884;11.446;2022-09-09T14:05:22;3.67;;;1.30;;
28904;SDS011;60848;53.884;11.446;2022-09-09T14:07:51;3.25;;;1.27;;
28904;SDS011;60848;53.884;11.446;2022-09-09T14:10:20;2.40;;;1.15;;
28904;SDS011;60848;53.884;11.446;2022-09-09T14:12:48;2.83;;;1.15;;
28904;SDS011;60848;53.884;11.446;2022-09-09T14:15:17;3.00;;;1.13;;
28904;SDS011;60848;53.884;11.446;2022-09-09T14:17:46;3.58;;;1.23;;
28904;SDS011;60848;53.884;11.446;2022-09-09T14:20:15;3.15;;;1.30;;
28904;SDS011;60848;53.884;11.446;2022-09-09T14:22:44;3.87;;;1.23;;
28904;SDS011;60848;53.884;11.446;2022-09-09T14:25:13;2.80;;;1.27;;
28904;SDS011;60848;53.884;11.446;2022-09-09T14:27:42;4.72;;;1.40;;
28904;SDS011;60848;53.884;11.446;2022-09-09T14:30:13;3.40;;;1.30;;
28904;SDS011;60848;53.884;11.446;2022-09-09T14:32:41;3.20;;;1.23;;
28904;SDS011;60848;53.884;11.446;2022-09-09T14:35:12;4.40;;;1.40;;
28904;SDS011;60848;53.884;11.446;2022-09-09T14:37:40;2.90;;;1.33;;
28904;SDS011;60848;53.884;11.446;2022-09-09T14:40:10;3.92;;;1.25;;
28904;SDS011;60848;53.884;11.446;2022-09-09T14:42:42;3.80;;;1.23;;
28904;SDS011;60848;53.884;11.446;2022-09-09T14:45:11;5.03;;;1.80;;
28904;SDS011;60848;53.884;11.446;2022-09-09T14:47:41;4.55;;;1.77;;
28904;SDS011;60848;53.884;11.446;2022-09-09T14:50:10;3.25;;;1.60;;
28904;SDS011;60848;53.884;11.446;2022-09-09T14:52:40;4.57;;;1.58;;
28904;SDS011;60848;53.884;11.446;2022-09-09T14:55:08;3.72;;;1.58;;
28904;SDS011;60848;53.884;11.446;2022-09-09T14:57:37;3.30;;;1.40;;
28904;SDS011;60848;53.884;11.446;2022-09-09T15:00:08;4.30;;;1.70;;
28904;SDS011;60848;53.884;11.446;2022-09-09T15:02:40;4.97;;;1.95;;
28904;SDS011;60848;53.884;11.446;2022-09-09T15:05:08;4.67;;;1.73;;
28904;SDS011;60848;53.884;11.446;2022-09-09T15:07:37;4.78;;;2.00;;
28904;SDS011;60848;53.884;11.446;2022-09-09T15:10:07;4.35;;;2.10;;
28904;SDS011;60848;53.884;11.446;2022-09-09T15:12:39;5.22;;;2.58;;
28904;SDS011;60848;53.884;11.446;2022-09-09T15:15:10;5.87;;;3.80;;
28904;SDS011;60848;53.884;11.446;2022-09-09T15:17:39;8.55;;;4.30;;
28904;SDS011;60848;53.884;11.446;2022-09-09T15:20:07;7.15;;;4.13;;
28904;SDS011;60848;53.884;11.446;2022-09-09T15:22:36;6.93;;;3.90;;
28904;SDS011;60848;53.884;11.446;2022-09-09T15:25:07;4.75;;;2.85;;
28904;SDS011;60848;53.884;11.446;2022-09-09T15:27:35;5.55;;;1.80;;
28904;SDS011;60848;53.884;11.446;2022-09-09T15:30:05;3.25;;;1.50;;
28904;SDS011;60848;53.884;11.446;2022-09-09T15:32:36;3.75;;;1.80;;
28904;SDS011;60848;53.884;11.446;2022-09-09T15:35:05;9.17;;;4.50;;
28904;SDS011;60848;53.884;11.446;2022-09-09T15:37:34;3.78;;;1.60;;
28904;SDS011;60848;53.884;11.446;2022-09-09T15:40:02;3.63;;;1.63;;
28904;SDS011;60848;53.884;11.446;2022-09-09T15:42:31;4.15;;;1.63;;
28904;SDS011;60848;53.884;11.446;2022-09-09T15:45:00;3.38;;;1.70;;
28904;SDS011;60848;53.884;11.446;2022-09-09T15:47:28;3.03;;;1.60;;
28904;SDS011;60848;53.884;11.446;2022-09-09T15:49:57;3.25;;;1.75;;
28904;SDS011;60848;53.884;11.446;2022-09-09T15:52:26;6.50;;;2.80;;
28904;SDS011;60848;53.884;11.446;2022-09-09T15:54:54;6.32;;;3.65;;
28904;SDS011;60848;53.884;11.446;2022-09-09T15:57:22;3.38;;;1.63;;
28904;SDS011;60848;53.884;11.446;2022-09-09T15:59:50;3.47;;;1.65;;
28904;SDS011;60848;53.884;11.446;2022-09-09T16:02:19;2.13;;;1.23;;
28904;SDS011;60848;53.884;11.446;2022-09-09T16:04:47;2.25;;;0.90;;
28904;SDS011;60848;53.884;11.446;2022-09-09T16:07:17;3.20;;;0.98;;
28904;SDS011;60848;53.884;11.446;2022-09-09T16:09:47;2.28;;;1.20;;
28904;SDS011;60848;53.884;11.446;2022-09-09T16:12:17;2.80;;;0.90;;
28904;SDS011;60848;53.884;11.446;2022-09-09T16:14:48;3.67;;;1.48;;
28904;SDS011;60848;53.884;11.446;2022-09-09T16:17:16;4.50;;;1.00;;
28904;SDS011;60848;53.884;11.446;2022-09-09T16:19:49;2.55;;;0.90;;
28904;SDS011;60848;53.884;11.446;2022-09-09T16:22:18;3.53;;;0.85;;
28904;SDS011;60848;53.884;11.446;2022-09-09T16:24:49;2.03;;;1.07;;
28904;SDS011;60848;53.884;11.446;2022-09-09T16:27:20;3.80;;;1.00;;
28904;SDS011;60848;53.884;11.446;2022-09-09T16:29:49;2.63;;;1.10;;
28904;SDS011;60848;53.884;11.446;2022-09-09T16:32:18;2.72;;;1.00;;
28904;SDS011;60848;53.884;11.446;2022-09-09T16:34:46;2.95;;;1.30;;
28904;SDS011;60848;53.884;11.446;2022-09-09T16:37:15;3.03;;;1.20;;
28904;SDS011;60848;53.884;11.446;2022-09-09T16:39:45;2.33;;;1.00;;
28904;SDS011;60848;53.884;11.446;2022-09-09T16:42:16;4.00;;;1.25;;
28904;SDS011;60848;53.884;11.446;2022-09-09T16:44:44;2.75;;;1.40;;
28904;SDS011;60848;53.884;11.446;2022-09-09T16:47:13;2.78;;;1.30;;
28904;SDS011;60848;53.884;11.446;2022-09-09T16:49:41;3.40;;;1.40;;
28904;SDS011;60848;53.884;11.446;2022-09-09T16:52:10;4.43;;;1.60;;